createdAt,value
2019-04-05T00:04:10.895Z,1009
2019-04-05T00:09:41.695Z,1008.9
2019-04-05T00:15:15.421Z,1009
2019-04-05T00:20:43.171Z,1009
2019-04-05T00:26:14.291Z,1008.9
2019-04-05T00:31:45.964Z,1009
2019-04-05T00:37:19.240Z,1009
2019-04-05T00:42:49.270Z,1009.1
2019-04-05T00:48:20.822Z,1009.2
2019-04-05T00:53:52.413Z,1009.2
2019-04-05T00:59:24.029Z,1009.3
2019-04-05T01:04:55.649Z,1009.3
2019-04-05T01:10:27.337Z,1009.2
2019-04-05T01:15:58.939Z,1009.3
2019-04-05T01:21:30.595Z,1009.2
2019-04-05T01:27:02.201Z,1009.1
2019-04-05T01:32:33.801Z,1009.2
2019-04-05T01:38:05.390Z,1009.3
2019-04-05T01:43:36.968Z,1009.5
2019-04-05T01:49:08.573Z,1009.5
2019-04-05T01:54:40.158Z,1009.5
2019-04-05T02:00:11.857Z,1009.5
2019-04-05T02:05:43.259Z,1009.5
2019-04-05T02:11:14.783Z,1009.5
2019-04-05T02:16:45.760Z,1009.5
2019-04-05T02:22:16.491Z,1009.6
2019-04-05T02:27:47.261Z,1009.5
2019-04-05T02:33:18.001Z,1009.4
2019-04-05T02:38:48.687Z,1009.3
2019-04-05T02:44:19.504Z,1009.2
2019-04-05T02:49:50.205Z,1009.2
2019-04-05T02:55:20.984Z,1009.1
2019-04-05T03:00:51.677Z,1009
2019-04-05T03:06:22.392Z,1009.1
2019-04-05T03:11:53.197Z,1009
2019-04-05T03:17:24.709Z,1009
2019-04-05T03:22:56.214Z,1009
2019-04-05T03:28:26.940Z,1008.9
2019-04-05T03:33:58.231Z,1008.9
2019-04-05T03:39:29.606Z,1008.9
2019-04-05T03:45:00.314Z,1008.8
2019-04-05T03:50:31.022Z,1008.8
2019-04-05T03:56:02.016Z,1008.8
2019-04-05T04:01:32.802Z,1008.9
2019-04-05T04:07:03.884Z,1009
2019-04-05T04:12:34.650Z,1009.1
2019-04-05T04:18:05.396Z,1009.1
2019-04-05T04:23:36.037Z,1009.2
2019-04-05T04:29:06.810Z,1009.2
2019-04-05T04:34:37.616Z,1009.4
2019-04-05T04:40:08.270Z,1009.3
2019-04-05T04:45:39.059Z,1009.2
2019-04-05T04:51:09.759Z,1009.3
2019-04-05T04:56:40.467Z,1009.1
2019-04-05T05:02:11.276Z,1009.2
2019-04-05T05:07:42.026Z,1009.2
2019-04-05T05:13:12.702Z,1009.1
2019-04-05T05:18:45.134Z,1009.1
2019-04-05T05:24:14.210Z,1009
2019-04-05T05:29:44.815Z,1009.1
2019-04-05T05:35:15.615Z,1009.1
2019-04-05T05:40:46.299Z,1009.2
2019-04-05T05:46:17.033Z,1009.3
2019-04-05T05:51:47.721Z,1009.1
2019-04-05T05:57:18.503Z,1009.1
2019-04-05T06:02:49.207Z,1009
2019-04-05T06:08:19.926Z,1008.9
2019-04-05T06:13:50.756Z,1009
2019-04-05T06:19:21.466Z,1008.9
2019-04-05T06:24:52.236Z,1008.9
2019-04-05T06:30:23.260Z,1008.8
2019-04-05T06:35:54.816Z,1008.8
2019-04-05T06:41:25.974Z,1008.7
2019-04-05T06:46:57.618Z,1008.7
2019-04-05T06:52:29.099Z,1008.7
2019-04-05T06:58:00.955Z,1008.7
2019-04-05T07:03:32.039Z,1008.7
2019-04-05T07:09:03.673Z,1008.6
2019-04-05T07:14:35.157Z,1008.5
2019-04-05T07:20:06.572Z,1008.4
2019-04-05T07:25:38.101Z,1008.4
2019-04-05T07:31:09.859Z,1008.4
2019-04-05T07:36:41.614Z,1008.3
2019-04-05T07:42:13.522Z,1008.2
2019-04-05T07:47:45.286Z,1008.1
2019-04-05T07:53:17.185Z,1008.1
2019-04-05T07:58:49.083Z,1007.9
2019-04-05T08:04:20.991Z,1007.8
2019-04-05T08:09:52.885Z,1007.7
2019-04-05T08:15:24.883Z,1007.7
2019-04-05T08:20:56.882Z,1007.8
2019-04-05T08:26:28.873Z,1007.7
2019-04-05T08:32:13.560Z,1007.6
2019-04-05T08:37:32.129Z,1007.6
2019-04-05T08:43:03.830Z,1007.5
2019-04-05T08:48:35.671Z,1007.2
2019-04-05T08:54:06.905Z,1007
2019-04-05T08:59:32.252Z,1006.9
2019-04-05T09:05:04.349Z,1007
2019-04-05T09:10:36.578Z,1007
2019-04-05T09:21:41.144Z,1006.6
2019-04-05T09:27:12.812Z,1006.2
2019-04-05T09:32:44.356Z,1006.4
2019-04-05T09:38:16.152Z,1006.4
2019-04-05T09:43:48.381Z,1006.3
2019-04-05T09:49:20.411Z,1006.5
2019-04-05T09:54:52.646Z,1006.2
2019-04-05T10:00:24.955Z,1006.3
2019-04-05T10:05:56.860Z,1006.3
2019-04-05T10:11:28.978Z,1006.1
2019-04-05T10:17:01.412Z,1006.1
2019-04-05T10:22:38.212Z,1006.1
2019-04-05T10:28:10.310Z,1006.2
2019-04-05T10:33:42.555Z,1006.2
2019-04-05T10:39:14.549Z,1006.1
2019-04-05T10:44:46.996Z,1006.2
2019-04-05T10:50:18.794Z,1005.9
2019-04-05T10:55:51.066Z,1005.7
2019-04-05T11:01:23.572Z,1005.6
2019-04-05T11:06:56.169Z,1005.9
2019-04-05T11:12:28.727Z,1006
2019-04-05T11:18:04.395Z,1005.2
2019-04-05T11:23:34.447Z,1005.2
2019-04-05T11:29:07.186Z,1005.9
2019-04-05T11:34:39.950Z,1005.7
2019-04-05T11:40:12.857Z,1005
2019-04-05T11:45:45.961Z,1004.4
2019-04-05T11:51:19.228Z,1004.9
2019-04-05T11:56:52.566Z,1004.7
2019-04-05T12:02:25.969Z,1004.5
2019-04-05T12:08:01.675Z,1004.3
2019-04-05T12:13:32.654Z,1004.4
2019-04-05T12:19:06.199Z,1004.5
2019-04-05T12:24:39.619Z,1004.2
2019-04-05T12:30:13.373Z,1004
2019-04-05T12:35:47.208Z,1004.1
2019-04-05T12:41:20.658Z,1004.3
2019-04-05T12:46:53.782Z,1004.4
2019-04-05T12:52:27.509Z,1004.6
2019-04-05T12:57:59.908Z,1004.7
2019-04-05T13:03:32.742Z,1004.8
2019-04-05T13:09:06.909Z,1004.7
2019-04-05T13:14:38.186Z,1004.8
2019-04-05T13:20:10.815Z,1004.6
2019-04-05T13:25:43.457Z,1004.6
2019-04-05T13:31:18.130Z,1004.6
2019-04-05T13:36:48.799Z,1004.6
2019-04-05T13:42:21.409Z,1004.4
2019-04-05T13:47:53.944Z,1004.3
2019-04-05T13:53:26.490Z,1004.2
2019-04-05T13:58:59.197Z,1004.1
2019-04-05T14:04:32.046Z,1003.3
2019-04-05T14:10:05.663Z,1002.9
2019-04-05T14:15:41.765Z,1003.1
2019-04-05T14:21:13.365Z,1003.2
2019-04-05T14:26:46.766Z,1003.4
2019-04-05T14:32:21.604Z,1002.8
2019-04-05T14:37:55.064Z,1002.6
2019-04-05T14:43:27.695Z,1002.6
2019-04-05T14:49:02.248Z,1002.5
2019-04-05T14:54:36.915Z,1002.4
2019-04-05T15:00:14.546Z,1002.3
2019-04-05T15:05:46.783Z,1002.5
2019-04-05T15:11:21.371Z,1003
2019-04-05T15:16:55.514Z,1002.9
2019-04-05T15:22:29.551Z,1002.8
2019-04-05T15:28:04.102Z,1003.1
2019-04-05T15:33:37.340Z,1003.1
2019-04-05T15:39:10.850Z,1003.3
2019-04-05T15:44:43.975Z,1003.2
2019-04-05T15:50:17.330Z,1003.4
2019-04-05T15:55:50.483Z,1003.5
2019-04-05T16:01:23.591Z,1003.8
2019-04-05T16:06:56.644Z,1003.9
2019-04-05T16:12:29.459Z,1003.9
2019-04-05T16:18:02.299Z,1004
2019-04-05T16:23:34.913Z,1004.1
2019-04-05T16:29:07.654Z,1004.2
2019-04-05T16:34:39.869Z,1004.2
2019-04-05T16:40:12.495Z,1004.2
2019-04-05T16:45:44.799Z,1004.1
2019-04-05T16:51:17.511Z,1004.2
2019-04-05T16:56:50.051Z,1004.2
2019-04-05T17:02:22.187Z,1004.3
2019-04-05T17:07:53.940Z,1004.3
2019-04-05T17:13:25.626Z,1004.3
2019-04-05T17:18:57.279Z,1004.3
2019-04-05T17:24:28.959Z,1004.2
2019-04-05T17:30:02.050Z,1004.2
2019-04-05T17:35:32.500Z,1004.4
2019-04-05T17:41:04.177Z,1004.7
2019-04-05T17:46:35.822Z,1004.8
2019-04-05T17:52:08.185Z,1005
2019-04-05T17:57:38.770Z,1005.1
2019-04-05T18:03:10.168Z,1005.1
2019-04-05T18:08:41.566Z,1005.3
2019-04-05T18:14:13.812Z,1005.4
2019-04-05T18:19:44.091Z,1005.7
2019-04-05T18:25:15.319Z,1005.8
2019-04-05T18:30:46.544Z,1005.9
2019-04-05T18:36:17.734Z,1006.2
2019-04-05T18:41:48.850Z,1006.2
2019-04-05T18:47:19.954Z,1006.3
2019-04-05T18:52:51.049Z,1006.5
2019-04-05T18:58:22.300Z,1006.5
2019-04-05T19:03:53.179Z,1006.5
2019-04-05T19:09:24.322Z,1006.5
2019-04-05T19:14:57.642Z,1006.6
2019-04-05T19:20:26.611Z,1006.6
2019-04-05T19:25:57.726Z,1006.7
2019-04-05T19:53:33.032Z,1006.9
2019-04-05T19:59:03.998Z,1007
2019-04-05T20:04:35.087Z,1007.2
2019-04-05T20:10:06.021Z,1007.2
2019-04-05T20:15:37.043Z,1007.2
2019-04-05T20:21:07.935Z,1007.3
2019-04-05T20:26:38.936Z,1007.5
2019-04-05T20:32:09.961Z,1007.7
2019-04-05T20:37:40.893Z,1007.7
2019-04-05T20:43:11.776Z,1007.7
2019-04-05T20:48:42.665Z,1007.6
2019-04-05T20:54:20.015Z,1007.5
2019-04-05T20:59:44.518Z,1007.5
2019-04-05T21:05:24.634Z,1007.6
2019-04-05T21:10:46.405Z,1007.7
2019-04-05T21:16:17.333Z,1007.7
2019-04-05T21:21:48.269Z,1007.6
2019-04-05T21:27:19.247Z,1007.7
2019-04-05T21:32:50.145Z,1007.7
2019-04-05T21:38:21.183Z,1007.7
2019-04-05T21:43:52.105Z,1008
2019-04-05T21:49:22.979Z,1007.9
2019-04-05T21:54:53.960Z,1008
2019-04-05T22:00:24.884Z,1008.1
2019-04-05T22:05:55.811Z,1008.1
2019-04-05T22:11:27.823Z,1008.3
2019-04-05T22:16:57.608Z,1008.4
2019-04-05T22:22:28.433Z,1008.1
2019-04-05T22:27:59.337Z,1008.1
2019-04-05T22:33:30.243Z,1008.1
2019-04-05T22:39:01.128Z,1008.2
2019-04-05T22:44:38.028Z,1008.5
2019-04-05T22:50:02.926Z,1008.5
2019-04-05T22:55:33.726Z,1008.5
2019-04-05T23:01:04.644Z,1008.6
2019-04-05T23:06:35.458Z,1008.6
2019-04-05T23:12:06.995Z,1008.6
2019-04-05T23:17:37.076Z,1008.6
2019-04-05T23:23:07.961Z,1008.7
2019-04-05T23:28:38.780Z,1008.6
2019-04-05T23:34:09.549Z,1008.6
2019-04-05T23:39:41.283Z,1008.7
2019-04-05T23:45:11.296Z,1008.8
2019-04-05T23:50:42.098Z,1008.7
2019-04-05T23:56:12.872Z,1008.8
